Time;durP1;ratioP1;P1;durP2;ratioP2;P2;SDS_P1;SDS_P2;PMS_P1;PMS_P2;Temp;Humidity;BMP_temperature;BMP_pressure;BME280_temperature;BME280_humidity;BME280_pressure;Samples;Min_cycle;Max_cycle;Signal;HPM_P1;HPM_P2
2023/09/04 00:01:22;;;;;;;24.27;13.10;;;;;;;14.84;75.25;100246.25;5051428;28;20036;-67
2023/09/04 00:03:47;;;;;;;21.42;12.40;;;;;;;14.78;75.57;100239.56;5035037;28;20029;-67
2023/09/04 00:06:13;;;;;;;23.15;11.75;;;;;;;14.80;75.38;100247.53;5018880;28;20495;-68
2023/09/04 00:08:38;;;;;;;28.15;12.07;;;;;;;14.80;75.75;100250.22;5051859;28;20363;-67
2023/09/04 00:11:04;;;;;;;19.63;12.27;;;;;;;14.72;75.79;100238.31;5052120;28;20041;-68
2023/09/04 00:13:29;;;;;;;23.40;11.82;;;;;;;14.75;75.91;100234.47;5050701;28;20048;-69
2023/09/04 00:15:56;;;;;;;22.83;12.70;;;;;;;14.69;75.95;100230.44;5051846;28;20037;-68
2023/09/04 00:18:22;;;;;;;26.48;13.32;;;;;;;14.66;76.15;100236.13;5034880;28;20037;-67
2023/09/04 00:20:48;;;;;;;22.00;12.48;;;;;;;14.64;76.35;100230.03;5051477;28;20021;-68
2023/09/04 00:23:14;;;;;;;24.40;13.20;;;;;;;14.58;76.58;100225.22;5052413;28;20031;-70
2023/09/04 00:25:39;;;;;;;20.27;12.77;;;;;;;14.58;76.77;100234.13;5052252;28;20076;-68
2023/09/04 00:28:05;;;;;;;27.58;12.63;;;;;;;14.56;77.16;100240.66;5052066;28;20102;-68
2023/09/04 00:30:31;;;;;;;23.60;12.90;;;;;;;14.49;76.90;100235.84;5052139;28;20056;-68
2023/09/04 00:32:57;;;;;;;25.40;14.60;;;;;;;14.45;77.31;100229.00;5051560;28;20028;-67
2023/09/04 00:35:22;;;;;;;19.65;13.45;;;;;;;14.43;77.50;100249.00;5051112;28;20029;-68
2023/09/04 00:37:48;;;;;;;25.55;14.02;;;;;;;14.41;77.63;100242.91;5052550;28;20037;-68
2023/09/04 00:40:14;;;;;;;23.02;13.30;;;;;;;14.38;77.74;100237.81;5052967;28;20033;-67
2023/09/04 00:42:39;;;;;;;29.60;14.13;;;;;;;14.38;77.66;100246.72;5052100;28;20087;-68
2023/09/04 00:45:07;;;;;;;24.55;13.07;;;;;;;14.34;77.68;100248.84;5051044;28;20037;-68
2023/09/04 00:47:32;;;;;;;26.83;13.50;;;;;;;14.31;77.87;100242.88;5050963;28;20116;-69
2023/09/04 00:49:59;;;;;;;27.55;14.45;;;;;;;14.29;77.96;100239.47;5050984;28;20108;-68
2023/09/04 00:52:25;;;;;;;31.65;13.77;;;;;;;14.29;77.94;100239.47;5053279;28;20194;-69
2023/09/04 00:54:51;;;;;;;27.77;15.60;;;;;;;14.27;78.25;100234.22;5055839;28;20099;-72
2023/09/04 00:57:18;;;;;;;26.40;13.85;;;;;;;14.32;78.00;100239.22;5038343;28;20091;-68
2023/09/04 00:59:48;;;;;;;30.80;14.43;;;;;;;14.16;78.20;100212.81;5055049;28;20051;-68
2023/09/04 01:02:14;;;;;;;24.98;13.43;;;;;;;14.28;78.10;100249.38;5055935;28;20033;-68
2023/09/04 01:04:40;;;;;;;31.00;14.38;;;;;;;14.23;78.10;100238.19;5055640;28;20071;-68
2023/09/04 01:07:06;;;;;;;28.80;14.20;;;;;;;14.20;78.03;100233.06;5055610;28;20056;-69
2023/09/04 01:09:31;;;;;;;24.70;13.50;;;;;;;14.20;78.24;100241.16;5054376;28;20036;-69
2023/09/04 01:12:06;;;;;;;26.10;13.60;;;;;;;14.26;78.23;100242.47;5054762;28;20057;-68
2023/09/04 01:14:34;;;;;;;25.70;13.48;;;;;;;14.17;78.07;100236.06;5054438;28;20095;-68
2023/09/04 01:17:00;;;;;;;25.42;13.82;;;;;;;14.16;78.15;100232.50;5054275;28;20094;-68
2023/09/04 01:19:26;;;;;;;23.98;13.35;;;;;;;14.17;78.47;100241.44;5054213;28;20029;-68
2023/09/04 01:21:52;;;;;;;29.50;14.23;;;;;;;14.12;78.43;100236.44;5054740;28;20341;-67
2023/09/04 01:24:17;;;;;;;23.30;13.50;;;;;;;14.14;78.58;100245.25;5054482;28;20084;-68
2023/09/04 01:26:55;;;;;;;27.70;13.60;;;;;;;14.16;78.61;100245.97;5054845;28;20116;-67
2023/09/04 01:29:36;;;;;;;23.40;12.50;;;;;;;14.18;78.51;100254.75;5037429;28;20036;-68
2023/09/04 01:32:12;;;;;;;22.70;13.27;;;;;;;14.14;78.62;100247.94;5055037;28;20070;-68
2023/09/04 01:34:43;;;;;;;25.45;13.07;;;;;;;14.09;78.76;100244.81;5055042;28;20035;-68
2023/09/04 01:37:10;;;;;;;22.75;13.13;;;;;;;14.01;79.04;100242.78;5053981;28;20021;-68
2023/09/04 01:39:38;;;;;;;26.05;13.57;;;;;;;13.74;78.93;100198.50;5054760;28;20029;-67
2023/09/04 01:42:03;;;;;;;23.50;13.23;;;;;;;14.01;79.10;100241.97;5053723;28;20353;-67
2023/09/04 01:44:29;;;;;;;26.75;13.40;;;;;;;14.00;79.18;100243.78;5053118;28;20035;-67
2023/09/04 01:46:54;;;;;;;22.10;13.32;;;;;;;13.97;79.22;100240.50;5033508;28;20038;-68
2023/09/04 01:49:20;;;;;;;25.52;13.32;;;;;;;13.94;79.01;100241.63;5034306;28;20079;-68
2023/09/04 01:51:46;;;;;;;23.75;13.10;;;;;;;13.91;79.03;100237.38;5050600;28;20420;-67
2023/09/04 01:54:12;;;;;;;23.17;13.32;;;;;;;13.87;79.37;100241.31;5016925;28;20056;-69
2023/09/04 01:56:37;;;;;;;22.75;12.68;;;;;;;13.89;79.34;100244.72;5017143;28;20033;-68
2023/09/04 01:59:03;;;;;;;22.42;13.20;;;;;;;13.87;79.71;100248.56;5051048;28;20029;-67
2023/09/04 02:01:28;;;;;;;20.45;13.18;;;;;;;13.80;79.69;100240.16;5054469;28;20047;-67
2023/09/04 02:03:56;;;;;;;27.13;12.75;;;;;;;13.85;79.73;100255.88;5053245;28;20104;-67
2023/09/04 02:06:22;;;;;;;23.35;13.13;;;;;;;13.83;79.88;100256.03;5053799;28;20115;-67
2023/09/04 02:08:48;;;;;;;24.67;13.77;;;;;;;13.78;79.87;100252.91;5053432;28;20024;-67
2023/09/04 02:11:14;;;;;;;23.70;13.48;;;;;;;13.78;79.72;100258.28;5052591;28;20053;-68
2023/09/04 02:13:39;;;;;;;22.88;12.63;;;;;;;13.80;79.81;100255.44;5053698;28;20128;-67
2023/09/04 02:16:05;;;;;;;18.38;12.30;;;;;;;13.76;80.01;100257.56;5054278;28;20079;-68
2023/09/04 02:18:31;;;;;;;20.92;13.02;;;;;;;13.49;79.91;100213.22;5053034;28;20043;-68
2023/09/04 02:20:59;;;;;;;22.88;13.20;;;;;;;13.74;80.04;100268.47;5054042;28;20116;-68
2023/09/04 02:23:25;;;;;;;24.50;12.98;;;;;;;13.77;79.97;100278.13;5054262;28;20036;-68
2023/09/04 02:25:51;;;;;;;24.88;12.95;;;;;;;13.74;79.76;100268.47;5054414;28;20021;-67
2023/09/04 02:28:16;;;;;;;19.60;11.73;;;;;;;13.78;80.08;100279.81;5052925;28;20041;-68
2023/09/04 02:30:42;;;;;;;24.05;12.30;;;;;;;13.78;79.94;100277.13;5052749;28;20036;-67
2023/09/04 02:33:07;;;;;;;22.80;12.43;;;;;;;13.72;80.23;100270.44;5053849;28;20423;-69
2023/09/04 02:35:33;;;;;;;19.50;12.07;;;;;;;13.78;80.05;100279.81;5053031;28;20360;-67
2023/09/04 02:37:59;;;;;;;18.17;11.75;;;;;;;13.75;79.80;100280.09;5052633;28;20029;-67
2023/09/04 02:40:25;;;;;;;19.88;12.05;;;;;;;13.77;80.02;100287.03;5053013;28;20119;-67
2023/09/04 02:42:50;;;;;;;22.40;12.82;;;;;;;13.79;80.18;100292.28;5053055;28;20124;-67
2023/09/04 02:45:16;;;;;;;18.85;12.25;;;;;;;13.80;79.96;100287.75;5052411;28;20033;-68
2023/09/04 02:47:42;;;;;;;21.88;12.65;;;;;;;13.78;79.68;100282.50;5052539;28;20064;-67
2023/09/04 02:50:08;;;;;;;19.80;12.88;;;;;;;13.80;79.92;100294.00;5052681;28;20499;-68
2023/09/04 02:52:33;;;;;;;20.35;12.32;;;;;;;13.86;80.00;100303.34;5036048;28;20463;-68
2023/09/04 02:54:59;;;;;;;22.42;12.35;;;;;;;13.86;79.77;100285.38;5052620;28;20032;-69
2023/09/04 02:57:26;;;;;;;20.42;12.07;;;;;;;13.92;79.87;100292.06;5051910;28;20064;-68
2023/09/04 02:59:51;;;;;;;17.15;11.70;;;;;;;13.94;79.63;100290.09;5053608;28;20043;-69
2023/09/04 03:02:17;;;;;;;17.88;11.15;;;;;;;13.97;79.30;100279.06;5053456;28;20025;-69
2023/09/04 03:04:42;;;;;;;20.40;12.13;;;;;;;14.03;79.32;100288.44;5053604;28;20025;-67
2023/09/04 03:07:08;;;;;;;15.23;11.43;;;;;;;14.06;78.98;100290.84;5053015;28;20086;-69
2023/09/04 03:09:33;;;;;;;17.75;11.43;;;;;;;14.14;78.81;100296.41;5053221;28;20029;-68
2023/09/04 03:11:59;;;;;;;18.73;11.38;;;;;;;14.17;78.45;100293.44;5052102;28;20053;-68
2023/09/04 03:14:25;;;;;;;21.27;11.80;;;;;;;14.26;78.16;100301.72;5052863;28;20094;-68
2023/09/04 03:16:50;;;;;;;17.95;10.23;;;;;;;14.34;77.62;100315.34;5052690;28;20028;-68
2023/09/04 03:19:16;;;;;;;18.08;11.05;;;;;;;14.38;77.52;100305.16;5052025;28;20033;-67
2023/09/04 03:21:41;;;;;;;16.42;11.15;;;;;;;14.52;77.40;100312.84;5051513;28;20030;-68
2023/09/04 03:24:07;;;;;;;19.00;10.60;;;;;;;14.75;76.60;100316.19;5035106;28;20029;-68
2023/09/04 03:26:33;;;;;;;16.02;10.25;;;;;;;15.23;75.36;100296.63;5052937;28;20467;-67
2023/09/04 03:28:59;;;;;;;20.30;10.85;;;;;;;15.96;72.40;100303.34;5051715;28;20376;-68
2023/09/04 03:31:24;;;;;;;16.88;10.00;;;;;;;16.82;68.75;100310.31;5053201;28;20108;-68
2023/09/04 03:33:50;;;;;;;17.77;9.52;;;;;;;17.63;65.66;100303.13;5052660;28;20108;-68
2023/09/04 03:36:15;;;;;;;15.50;9.45;;;;;;;18.50;62.35;100313.06;5051234;28;20029;-67
2023/09/04 03:38:41;;;;;;;20.33;10.52;;;;;;;19.17;59.95;100300.53;5051654;28;20040;-67
2023/09/04 03:41:07;;;;;;;21.45;9.63;;;;;;;20.03;57.15;100321.03;5051786;28;20025;-67
2023/09/04 03:43:34;;;;;;;15.50;9.25;;;;;;;20.69;55.23;100320.75;5051253;28;20032;-66
2023/09/04 03:46:00;;;;;;;18.40;9.35;;;;;;;21.30;52.93;100321.91;5052428;28;20037;-67
2023/09/04 03:48:26;;;;;;;16.02;8.73;;;;;;;21.90;50.94;100320.22;5051733;28;20103;-67
2023/09/04 03:50:51;;;;;;;17.10;8.43;;;;;;;22.39;49.24;100312.50;5051411;28;20537;-66
2023/09/04 03:53:17;;;;;;;13.50;7.97;;;;;;;22.92;47.77;100309.59;5051789;28;20033;-66
2023/09/04 03:55:42;;;;;;;19.52;8.77;;;;;;;23.50;45.86;100313.31;5052220;28;20033;-68
2023/09/04 03:58:08;;;;;;;19.35;8.23;;;;;;;24.03;44.62;100307.44;5052556;28;20443;-69
2023/09/04 04:00:33;;;;;;;10.52;7.10;;;;;;;24.60;43.52;100311.94;5052520;28;20097;-69
2023/09/04 04:03:02;;;;;;;13.00;7.25;;;;;;;25.23;41.55;100316.31;5051568;28;20032;-67
2023/09/04 04:05:27;;;;;;;12.82;6.88;;;;;;;25.79;40.61;100301.38;5051684;28;20469;-67
2023/09/04 04:07:53;;;;;;;11.38;6.63;;;;;;;26.31;39.63;100316.28;5050771;28;20033;-69
2023/09/04 04:10:19;;;;;;;15.23;6.65;;;;;;;26.78;38.07;100313.31;5051331;28;20777;-69
2023/09/04 04:12:46;;;;;;;11.35;5.68;;;;;;;27.32;37.10;100307.50;5050561;28;20090;-69
2023/09/04 04:15:11;;;;;;;11.38;6.72;;;;;;;27.78;36.12;100305.44;5032096;28;20513;-69
2023/09/04 04:17:38;;;;;;;18.98;6.18;;;;;;;28.14;35.15;100319.47;5032415;28;20033;-68
2023/09/04 04:20:10;;;;;;;14.00;5.90;;;;;;;28.59;34.29;100321.09;5015310;28;20025;-69
2023/09/04 04:22:36;;;;;;;9.18;5.82;;;;;;;29.08;33.14;100319.16;5044300;28;20090;-70
2023/09/04 04:25:01;;;;;;;11.88;6.50;;;;;;;29.80;31.96;100319.28;5051255;28;20119;-69
2023/09/04 04:27:27;;;;;;;13.90;5.65;;;;;;;30.21;30.81;100295.41;5054994;28;20126;-70
2023/09/04 04:29:55;;;;;;;8.60;6.03;;;;;;;30.90;29.94;100326.09;5054976;28;20075;-69
2023/09/04 04:32:20;;;;;;;9.82;5.80;;;;;;;31.39;29.58;100317.28;5053908;28;20032;-69
2023/09/04 04:34:46;;;;;;;7.82;5.45;;;;;;;32.00;28.22;100324.91;5035510;28;20025;-70
2023/09/04 04:37:12;;;;;;;14.27;5.43;;;;;;;32.55;27.06;100324.22;5037951;28;20107;-70
2023/09/04 04:39:37;;;;;;;10.93;5.82;;;;;;;33.09;26.92;100320.69;5054345;28;20368;-69
2023/09/04 04:42:03;;;;;;;12.60;6.03;;;;;;;33.50;25.97;100314.69;5055115;28;20439;-71
2023/09/04 04:44:29;;;;;;;10.23;5.70;;;;;;;34.04;25.33;100324.78;5054526;28;20036;-69
2023/09/04 04:46:54;;;;;;;12.93;6.00;;;;;;;34.67;24.44;100316.75;5055362;28;20044;-74
2023/09/04 04:49:22;;;;;;;10.27;6.03;;;;;;;35.22;23.92;100319.94;5054375;28;20854;-69
2023/09/04 04:51:49;;;;;;;14.05;6.00;;;;;;;35.44;23.06;100321.59;5055109;28;20186;-70
2023/09/04 04:54:15;;;;;;;10.23;5.32;;;;;;;35.95;22.71;100326.28;5055383;28;20514;-70
2023/09/04 04:56:41;;;;;;;13.00;5.68;;;;;;;36.43;21.98;100331.47;5054579;28;20112;-70
2023/09/04 04:59:08;;;;;;;11.77;5.88;;;;;;;36.85;21.83;100332.09;5055397;28;20099;-69
2023/09/04 05:01:37;;;;;;;10.18;5.95;;;;;;;37.30;21.18;100334.84;5054240;28;20059;-69
2023/09/04 05:04:03;;;;;;;12.57;5.93;;;;;;;37.53;20.81;100321.28;5053887;28;20028;-73
2023/09/04 05:06:28;;;;;;;11.23;5.57;;;;;;;37.96;20.27;100314.16;5036190;28;20419;-70
2023/09/04 05:08:54;;;;;;;8.50;5.38;;;;;;;38.55;19.44;100325.22;5037296;28;20033;-70
2023/09/04 05:11:20;;;;;;;10.82;6.00;;;;;;;38.93;19.00;100318.81;5054070;28;20059;-70
2023/09/04 05:13:45;;;;;;;10.88;5.43;;;;;;;39.34;18.53;100326.56;5053605;28;20037;-70
2023/09/04 05:16:11;;;;;;;13.50;5.95;;;;;;;39.69;18.32;100323.47;5053243;28;20071;-70
2023/09/04 05:18:36;;;;;;;10.27;5.68;;;;;;;39.97;18.11;100318.75;5036589;28;20452;-70
2023/09/04 05:21:06;;;;;;;17.25;6.28;;;;;;;40.23;17.65;100315.44;5054834;28;20078;-70
2023/09/04 05:23:35;;;;;;;9.05;5.63;;;;;;;40.48;17.59;100321.66;5054918;28;20363;-69
2023/09/04 05:26:01;;;;;;;10.65;6.07;;;;;;;40.68;17.08;100320.34;5054077;28;20104;-72
2023/09/04 05:28:26;;;;;;;11.57;6.38;;;;;;;40.98;16.72;100312.38;5054850;28;20464;-73
2023/09/04 05:30:52;;;;;;;10.13;6.38;;;;;;;41.17;16.82;100308.59;5053821;28;20025;-71
2023/09/04 05:33:17;;;;;;;7.95;5.95;;;;;;;41.54;16.02;100288.81;5054227;28;20064;-72
2023/09/04 05:35:43;;;;;;;11.00;5.95;;;;;;;41.70;16.13;100281.66;5054574;28;20437;-73
2023/09/04 05:38:09;;;;;;;14.65;5.93;;;;;;;41.89;15.78;100303.06;5054455;28;20195;-72
2023/09/04 05:40:34;;;;;;;6.18;5.57;;;;;;;42.16;15.66;100309.63;5053892;28;20025;-70
2023/09/04 05:43:00;;;;;;;10.80;5.90;;;;;;;42.79;15.26;100303.75;5055086;28;20029;-70
2023/09/04 05:45:26;;;;;;;10.73;5.43;;;;;;;43.01;14.71;100314.06;5054188;28;20052;-70
2023/09/04 05:47:51;;;;;;;12.30;6.10;;;;;;;43.00;14.75;100300.31;5053421;28;20032;-70
2023/09/04 05:50:17;;;;;;;9.98;5.53;;;;;;;43.08;14.76;100321.19;5053374;28;20120;-71
2023/09/04 05:52:43;;;;;;;7.13;5.55;;;;;;;42.93;14.88;100306.47;5054324;28;20091;-71
2023/09/04 05:55:09;;;;;;;7.05;6.10;;;;;;;43.34;14.51;100303.44;5053287;28;20400;-70
2023/09/04 05:57:35;;;;;;;9.57;5.20;;;;;;;42.65;14.86;100301.13;5054510;28;20044;-70
2023/09/04 06:00:03;;;;;;;7.00;4.88;;;;;;;42.59;14.74;100308.91;5036407;28;20363;-72
2023/09/04 06:02:30;;;;;;;6.65;4.80;;;;;;;43.11;14.11;100303.59;5037120;28;20036;-71
2023/09/04 06:04:56;;;;;;;12.43;4.82;;;;;;;43.47;14.11;100265.78;5053089;28;20037;-71
2023/09/04 06:07:21;;;;;;;7.40;4.60;;;;;;;43.73;13.77;100304.34;5053392;28;20436;-71
2023/09/04 06:09:47;;;;;;;5.43;4.93;;;;;;;43.74;13.77;100292.72;5053609;28;20141;-72
2023/09/04 06:12:13;;;;;;;8.60;5.35;;;;;;;43.87;13.40;100290.81;5053012;28;20056;-72
2023/09/04 06:14:39;;;;;;;10.77;5.28;;;;;;;44.27;13.21;100297.28;5053479;28;20077;-71
2023/09/04 06:17:04;;;;;;;6.05;4.78;;;;;;;44.41;13.36;100289.38;5052726;28;20419;-73
2023/09/04 06:19:30;;;;;;;9.48;5.28;;;;;;;44.60;13.17;100293.72;5052422;28;20135;-71
2023/09/04 06:21:56;;;;;;;6.28;4.90;;;;;;;45.34;12.63;100310.22;5053980;28;20036;-71
2023/09/04 06:24:22;;;;;;;4.82;4.32;;;;;;;45.79;11.86;100296.41;5053315;28;20109;-70
2023/09/04 06:26:48;;;;;;;9.25;6.10;;;;;;;45.98;12.22;100287.34;5053912;28;20087;-70
2023/09/04 06:29:17;;;;;;;6.80;5.53;;;;;;;46.33;11.77;100286.84;5053104;28;20451;-70
2023/09/04 06:31:42;;;;;;;5.93;4.47;;;;;;;46.44;11.67;100299.31;5035742;28;20048;-70
2023/09/04 06:34:08;;;;;;;7.03;4.70;;;;;;;46.87;11.26;100304.66;5053808;28;20025;-70
2023/09/04 06:36:34;;;;;;;5.53;3.50;;;;;;;47.21;11.14;100302.38;5054051;28;20162;-71
2023/09/04 06:39:00;;;;;;;5.32;3.70;;;;;;;46.43;11.25;100296.88;5053620;28;20444;-71
2023/09/04 06:41:26;;;;;;;4.15;3.70;;;;;;;45.20;12.68;100304.84;5049605;28;20472;-74
2023/09/04 06:43:51;;;;;;;7.53;4.22;;;;;;;44.69;13.15;100296.50;5031994;28;20037;-69
2023/09/04 06:46:17;;;;;;;6.00;3.97;;;;;;;44.30;13.26;100307.88;5052942;28;20391;-70
2023/09/04 06:48:42;;;;;;;6.43;3.60;;;;;;;45.03;12.57;100305.88;5051166;28;20505;-70
2023/09/04 06:51:08;;;;;;;6.97;3.40;;;;;;;46.33;11.89;100308.66;5051487;28;20075;-69
2023/09/04 06:53:34;;;;;;;7.78;3.30;;;;;;;46.58;11.24;100303.81;5052860;28;20057;-71
2023/09/04 06:56:00;;;;;;;5.28;3.45;;;;;;;46.89;11.25;100301.47;5051586;28;20024;-70
2023/09/04 06:58:26;;;;;;;5.32;3.30;;;;;;;46.92;11.47;100304.41;5035136;28;20503;-69
2023/09/04 07:00:53;;;;;;;3.15;2.85;;;;;;;47.06;11.00;100289.00;5052557;28;20477;-69
2023/09/04 07:03:18;;;;;;;9.68;3.53;;;;;;;46.64;10.87;100268.38;5053373;28;20041;-71
2023/09/04 07:05:44;;;;;;;7.78;6.47;;;;;;;46.20;11.70;100280.41;5052004;28;20378;-69
2023/09/04 07:08:09;;;;;;;9.57;3.20;;;;;;;45.86;12.11;100302.31;5048465;28;20024;-69
2023/09/04 07:10:35;;;;;;;5.18;3.83;;;;;;;45.11;11.91;100309.78;5047808;28;20147;-65
2023/09/04 07:13:02;;;;;;;4.45;3.30;;;;;;;44.78;12.59;100311.38;5050995;28;20041;-68
2023/09/04 07:15:28;;;;;;;4.55;3.83;;;;;;;44.82;12.60;100311.50;5051253;28;20468;-68
2023/09/04 07:17:54;;;;;;;5.40;3.40;;;;;;;45.15;12.72;100319.22;5050846;28;20037;-69
2023/09/04 07:20:19;;;;;;;5.72;3.17;;;;;;;44.77;12.49;100320.19;5051436;28;20040;-70
2023/09/04 07:22:45;;;;;;;5.00;3.40;;;;;;;42.57;14.21;100318.84;5052526;28;20143;-69
2023/09/04 07:25:11;;;;;;;3.70;2.67;;;;;;;39.98;15.62;100314.81;5051501;28;20108;-69
2023/09/04 07:27:37;;;;;;;3.90;2.88;;;;;;;39.25;17.00;100312.44;5050771;28;20040;-70
2023/09/04 07:30:03;;;;;;;6.97;3.30;;;;;;;38.74;17.35;100309.28;5051379;28;20418;-67
2023/09/04 07:32:30;;;;;;;6.57;5.05;;;;;;;38.08;18.35;100311.78;5051305;28;20029;-68
2023/09/04 07:34:56;;;;;;;3.78;3.15;;;;;;;37.52;19.45;100305.66;5051771;28;20066;-68
2023/09/04 07:37:27;;;;;;;8.15;3.60;;;;;;;36.69;19.68;100323.00;5050444;28;20040;-68
2023/09/04 07:39:53;;;;;;;5.35;3.28;;;;;;;35.94;20.33;100326.59;5050604;28;20029;-70
2023/09/04 07:42:19;;;;;;;4.82;2.75;;;;;;;35.13;21.55;100321.59;5050598;28;20024;-67
2023/09/04 07:44:45;;;;;;;5.65;3.10;;;;;;;35.00;21.72;100321.03;5050769;28;20412;-73
2023/09/04 07:47:10;;;;;;;6.10;3.20;;;;;;;35.09;21.84;100320.47;5051254;28;20029;-69
2023/09/04 07:49:36;;;;;;;4.72;2.88;;;;;;;35.34;21.93;100325.22;5052165;28;20032;-66
2023/09/04 07:52:01;;;;;;;6.53;2.95;;;;;;;35.59;21.10;100304.91;5051688;28;20067;-70
2023/09/04 07:54:27;;;;;;;5.57;3.03;;;;;;;36.29;20.39;100327.59;5034213;28;20025;-70
2023/09/04 07:56:52;;;;;;;4.50;2.72;;;;;;;36.92;20.14;100320.63;5032322;28;20029;-72
2023/09/04 07:59:18;;;;;;;3.55;2.20;;;;;;;37.59;18.75;100314.53;5051199;28;20032;-69
2023/09/04 08:01:43;;;;;;;4.80;2.67;;;;;;;37.96;18.31;100319.75;5051120;28;20392;-71
2023/09/04 08:04:09;;;;;;;5.13;3.90;;;;;;;37.73;19.18;100327.81;5050090;28;20044;-70
2023/09/04 08:06:35;;;;;;;6.32;2.92;;;;;;;36.72;19.39;100322.41;5043693;28;20029;-71
2023/09/04 08:09:01;;;;;;;6.32;2.45;;;;;;;35.59;21.01;100318.81;5031468;28;20120;-68
2023/09/04 08:11:27;;;;;;;4.85;2.70;;;;;;;34.47;22.30;100315.53;5038944;28;20112;-69
2023/09/04 08:13:53;;;;;;;6.20;2.67;;;;;;;33.78;23.49;100312.69;5049422;28;20062;-69
2023/09/04 08:16:18;;;;;;;7.22;2.30;;;;;;;33.06;23.92;100319.28;5050782;28;20421;-70
2023/09/04 08:18:44;;;;;;;6.13;2.40;;;;;;;32.38;24.66;100322.38;5050611;28;20040;-70
2023/09/04 08:21:09;;;;;;;6.30;2.45;;;;;;;31.81;25.51;100323.50;5051192;28;20048;-76
2023/09/04 08:23:35;;;;;;;4.47;2.22;;;;;;;31.24;26.20;100315.09;5049176;28;20029;-71
2023/09/04 08:26:03;;;;;;;9.07;2.65;;;;;;;30.69;27.08;100292.53;5030408;28;20042;-72
2023/09/04 08:28:28;;;;;;;3.47;2.38;;;;;;;30.53;27.01;100307.06;5033336;28;20029;-69
2023/09/04 08:30:55;;;;;;;5.13;2.85;;;;;;;30.38;28.01;100330.53;5050990;28;20336;-70
2023/09/04 08:33:20;;;;;;;3.97;2.85;;;;;;;29.71;29.01;100320.75;5050290;28;20029;-71
2023/09/04 08:35:46;;;;;;;3.90;2.70;;;;;;;28.99;30.15;100326.09;5049605;28;20056;-69
2023/09/04 08:38:12;;;;;;;6.00;2.92;;;;;;;28.68;30.98;100329.88;5050365;28;20435;-71
2023/09/04 08:40:41;;;;;;;4.25;2.88;;;;;;;28.62;31.07;100343.50;5050312;28;20368;-69
2023/09/04 08:43:10;;;;;;;6.28;2.20;;;;;;;28.62;30.64;100321.47;5050107;28;20037;-69
2023/09/04 08:45:36;;;;;;;5.97;2.50;;;;;;;28.81;30.60;100334.41;5051521;28;20468;-66
2023/09/04 08:48:03;;;;;;;7.20;2.55;;;;;;;29.02;30.37;100336.63;5050990;28;20170;-71
2023/09/04 08:50:30;;;;;;;7.13;2.95;;;;;;;29.03;30.58;100331.94;5050944;28;20051;-67
2023/09/04 08:52:56;;;;;;;5.55;2.45;;;;;;;29.11;30.21;100328.03;5033786;28;20025;-69
2023/09/04 08:55:21;;;;;;;4.80;2.53;;;;;;;29.07;30.80;100328.50;5049757;28;20047;-67
2023/09/04 08:57:47;;;;;;;3.63;2.53;;;;;;;28.68;31.01;100324.38;5033367;28;20031;-66
2023/09/04 09:00:14;;;;;;;3.58;2.30;;;;;;;28.22;31.92;100335.72;5049913;28;20029;-65
2023/09/04 09:02:45;;;;;;;6.20;2.70;;;;;;;28.12;32.47;100327.94;5049423;28;20040;-66
2023/09/04 09:05:16;;;;;;;4.43;2.53;;;;;;;28.14;31.89;100323.06;5050020;28;20114;-67
2023/09/04 09:07:43;;;;;;;4.45;2.55;;;;;;;28.07;31.68;100323.13;5050750;28;20037;-67
2023/09/04 09:10:15;;;;;;;10.55;2.50;;;;;;;27.93;31.39;100325.16;5033510;28;20039;-66
2023/09/04 09:12:40;;;;;;;3.95;2.15;;;;;;;27.58;31.37;100331.22;5051061;28;20041;-68
2023/09/04 09:15:06;;;;;;;6.78;2.38;;;;;;;27.12;32.03;100324.13;5053153;28;20052;-68
2023/09/04 09:17:32;;;;;;;6.13;2.35;;;;;;;26.98;32.67;100335.19;5053814;28;20044;-68
2023/09/04 09:19:57;;;;;;;4.18;2.20;;;;;;;27.12;31.81;100330.47;5053254;28;20036;-69
2023/09/04 09:22:23;;;;;;;3.90;2.22;;;;;;;27.11;31.79;100312.28;5054728;28;20068;-69
2023/09/04 09:24:59;;;;;;;2.40;2.00;;;;;;;27.34;31.57;100327.34;5036813;28;20439;-72
2023/09/04 09:27:29;;;;;;;3.78;2.00;;;;;;;27.36;31.57;100337.06;5053573;28;20040;-73
2023/09/04 09:29:59;;;;;;;3.45;2.08;;;;;;;27.43;31.51;100347.16;5033459;28;20049;-71
2023/09/04 09:32:29;;;;;;;2.33;2.10;;;;;;;27.41;31.49;100327.31;5039440;28;20104;-72
2023/09/04 09:34:57;;;;;;;5.47;2.05;;;;;;;27.52;31.75;100340.38;5036569;28;20052;-69
2023/09/04 09:37:29;;;;;;;4.70;2.35;;;;;;;27.46;31.63;100308.22;5054042;28;20036;-67
2023/09/04 09:39:54;;;;;;;3.47;2.20;;;;;;;27.57;31.95;100334.19;5054458;28;20033;-70
2023/09/04 09:42:20;;;;;;;3.42;2.38;;;;;;;27.68;31.99;100344.47;5053856;28;20048;-74
2023/09/04 09:44:46;;;;;;;3.63;2.38;;;;;;;27.61;31.83;100328.03;5053589;28;20090;-68
2023/09/04 09:47:13;;;;;;;5.28;2.28;;;;;;;27.73;31.71;100352.88;5053974;28;20025;-70
2023/09/04 09:49:40;;;;;;;4.75;2.22;;;;;;;27.70;31.85;100346.97;5054628;28;20033;-69
2023/09/04 09:52:10;;;;;;;3.10;2.28;;;;;;;27.68;32.24;100325.22;5053880;28;20037;-68
2023/09/04 09:54:46;;;;;;;4.60;2.38;;;;;;;27.67;32.12;100337.28;5053513;28;20402;-68
2023/09/04 09:57:15;;;;;;;5.70;1.85;;;;;;;27.25;32.49;100337.81;5052990;28;20114;-71
2023/09/04 09:59:46;;;;;;;2.50;2.30;;;;;;;26.79;32.78;100329.59;5052026;28;20210;-69
2023/09/04 10:02:22;;;;;;;4.10;2.00;;;;;;;26.74;33.40;100339.53;5052937;28;20032;-68
2023/09/04 10:04:47;;;;;;;4.78;2.20;;;;;;;26.63;33.34;100341.06;5053254;28;20368;-67
2023/09/04 10:07:21;;;;;;;2.67;2.10;;;;;;;26.61;33.49;100344.00;5036376;28;20033;-69
2023/09/04 10:09:59;;;;;;;4.75;2.00;;;;;;;26.47;33.59;100343.22;5053018;28;20455;-68
2023/09/04 10:12:33;;;;;;;2.50;1.80;;;;;;;26.47;33.46;100350.63;5050403;28;20045;-66
2023/09/04 10:15:00;;;;;;;5.82;1.85;;;;;;;26.28;33.64;100342.25;5053601;28;20475;-64
2023/09/04 10:17:50;;;;;;;5.10;2.50;;;;;;;26.35;33.42;100347.72;5053353;28;20029;-66
2023/09/04 10:20:16;;;;;;;8.52;2.38;;;;;;;26.00;34.12;100326.88;5051507;28;20033;-66
2023/09/04 10:22:49;;;;;;;2.65;2.08;;;;;;;25.99;34.14;100351.75;5053506;28;20355;-69
2023/09/04 10:25:17;;;;;;;5.22;2.22;;;;;;;25.94;34.24;100339.53;5052173;28;20109;-69
2023/09/04 10:27:50;;;;;;;3.38;2.13;;;;;;;25.99;33.72;100327.06;5053856;28;20025;-70
2023/09/04 10:30:18;;;;;;;8.38;2.10;;;;;;;26.28;33.29;100349.63;5035134;28;20033;-70
2023/09/04 10:32:44;;;;;;;3.88;2.03;;;;;;;26.45;33.01;100339.84;5053340;28;20448;-68
2023/09/04 10:35:10;;;;;;;2.65;1.95;;;;;;;26.71;32.29;100329.00;5052122;28;20032;-69
2023/09/04 10:37:37;;;;;;;6.20;2.20;;;;;;;26.91;32.31;100339.91;5052687;28;20033;-67
2023/09/04 10:40:06;;;;;;;3.72;1.90;;;;;;;26.83;31.89;100338.22;5050910;28;20193;-66
2023/09/04 10:42:33;;;;;;;2.67;2.00;;;;;;;26.54;32.19;100325.91;5052982;28;20041;-68
2023/09/04 10:45:12;;;;;;;6.35;2.15;;;;;;;26.88;32.08;100352.16;5052406;28;20033;-66
2023/09/04 10:47:49;;;;;;;5.80;2.50;;;;;;;27.09;31.77;100341.91;5053409;28;20036;-67
2023/09/04 10:50:33;;;;;;;3.80;2.10;;;;;;;27.33;31.57;100348.53;5052562;28;20029;-66
2023/09/04 10:53:00;;;;;;;4.45;2.20;;;;;;;27.20;31.43;100346.69;5051800;28;20116;-66
2023/09/04 10:55:27;;;;;;;3.17;2.10;;;;;;;26.99;32.34;100345.13;5051976;28;20033;-66
2023/09/04 10:57:57;;;;;;;4.72;2.20;;;;;;;26.75;32.81;100341.22;5051352;28;20390;-66
2023/09/04 11:00:28;;;;;;;5.57;2.10;;;;;;;26.68;32.43;100356.91;5051062;28;20028;-67
2023/09/04 11:02:53;;;;;;;3.33;2.13;;;;;;;26.47;32.31;100313.03;5052732;28;20440;-68
2023/09/04 11:05:19;;;;;;;2.90;1.95;;;;;;;26.73;32.09;100348.84;5051872;28;20052;-66
2023/09/04 11:07:44;;;;;;;6.40;1.90;;;;;;;26.79;31.89;100343.31;5052859;28;20032;-69
2023/09/04 11:10:11;;;;;;;5.32;2.13;;;;;;;27.00;31.83;100344.06;5052614;28;20052;-65
2023/09/04 11:12:37;;;;;;;4.10;1.88;;;;;;;27.06;31.90;100340.44;5052597;28;20375;-65
2023/09/04 11:15:32;;;;;;;6.22;2.33;;;;;;;27.44;31.55;100357.09;5051616;28;20426;-66
2023/09/04 11:17:57;;;;;;;3.97;2.17;;;;;;;27.22;31.80;100343.72;5050720;28;20133;-66